Time;durP1;ratioP1;P1;durP2;ratioP2;P2;SDS_P1;SDS_P2;PMS_P1;PMS_P2;Temp;Humidity;BMP_temperature;BMP_pressure;BME280_temperature;BME280_humidity;BME280_pressure;Samples;Min_cycle;Max_cycle;Signal;HPM_P1;HPM_P2
2022/01/12 00:02:01;;;;;;;34.25;16.10;;;5.30;72.40;;;;;;5054283;28;20219;-88
2022/01/12 00:04:27;;;;;;;28.33;14.55;;;5.20;72.50;;;;;;5043806;28;20182;-87
2022/01/12 00:06:53;;;;;;;41.40;15.00;;;5.10;72.90;;;;;;5039754;28;20253;-87
2022/01/12 00:09:18;;;;;;;30.60;16.50;;;5.20;73.10;;;;;;5038293;28;20468;-87
2022/01/12 00:11:44;;;;;;;28.20;14.27;;;5.00;73.20;;;;;;5038531;28;20954;-87
2022/01/12 00:14:10;;;;;;;34.73;16.03;;;5.10;73.40;;;;;;5037747;28;20186;-87
2022/01/12 00:16:35;;;;;;;38.53;15.07;;;5.10;73.50;;;;;;5039273;28;20243;-87
2022/01/12 00:19:01;;;;;;;32.10;15.83;;;5.20;73.40;;;;;;5050601;28;20627;-86
2022/01/12 00:21:27;;;;;;;30.93;14.43;;;5.10;73.30;;;;;;5045501;28;20192;-86
2022/01/12 00:23:53;;;;;;;32.60;15.40;;;5.10;73.50;;;;;;5052777;28;20681;-87
2022/01/12 00:34:44;;;;;;;34.30;16.50;;;5.10;74.30;;;;;;5033030;28;20193;-86
2022/01/12 00:37:10;;;;;;;28.00;14.13;;;5.30;73.90;;;;;;5034763;28;20190;-87
2022/01/12 00:39:35;;;;;;;33.20;15.60;;;5.30;73.70;;;;;;5033723;28;20201;-87
2022/01/12 00:42:01;;;;;;;30.93;16.00;;;5.20;73.70;;;;;;5033326;28;20181;-87
2022/01/12 00:44:34;;;;;;;40.03;15.33;;;5.30;73.90;;;;;;5033485;28;20178;-87
2022/01/12 00:47:00;;;;;;;35.08;18.58;;;5.20;74.40;;;;;;5041242;28;20994;-87
2022/01/12 00:49:26;;;;;;;33.83;17.08;;;5.20;75.20;;;;;;5043600;28;20232;-87
2022/01/12 00:51:54;;;;;;;32.80;15.90;;;5.40;75.80;;;;;;5054115;28;20200;-87
2022/01/12 00:54:21;;;;;;;37.25;16.77;;;5.30;76.30;;;;;;5050208;28;20428;-87
2022/01/12 00:56:47;;;;;;;38.70;18.00;;;5.40;76.70;;;;;;5033195;28;20202;-88
2022/01/12 00:59:13;;;;;;;33.00;16.20;;;5.60;77.10;;;;;;5034213;28;20177;-87
2022/01/12 01:01:40;;;;;;;40.08;18.20;;;5.60;77.60;;;;;;5033942;28;20747;-87
2022/01/12 01:04:05;;;;;;;31.15;16.90;;;5.60;78.10;;;;;;5036287;28;20207;-87
2022/01/12 01:06:32;;;;;;;34.97;17.97;;;5.20;78.80;;;;;;5042440;28;20280;-88
2022/01/12 01:08:58;;;;;;;41.72;18.92;;;5.30;79.70;;;;;;5037169;28;20681;-87
2022/01/12 01:11:24;;;;;;;34.93;16.30;;;5.30;80.10;;;;;;5037462;28;20273;-87
2022/01/12 01:14:02;;;;;;;41.90;19.65;;;5.40;80.60;;;;;;5045778;28;20527;-88
2022/01/12 01:27:23;;;;;;;41.20;18.83;;;4.70;85.70;;;;;;5072743;28;20226;-86
2022/01/12 01:29:52;;;;;;;45.47;20.40;;;4.80;86.20;;;;;;5068757;28;20275;-86
2022/01/12 01:32:18;;;;;;;43.83;21.42;;;4.70;86.60;;;;;;5057802;28;20948;-86
2022/01/12 01:34:47;;;;;;;44.87;19.83;;;4.70;86.90;;;;;;5060721;28;20177;-86
2022/01/12 01:37:13;;;;;;;45.10;20.75;;;4.70;87.10;;;;;;5061186;28;20471;-86
2022/01/12 01:39:39;;;;;;;54.50;21.63;;;4.60;87.20;;;;;;5063732;28;20181;-85
2022/01/12 01:42:16;;;;;;;44.33;21.30;;;4.60;87.30;;;;;;5064756;28;20177;-85
2022/01/12 01:55:23;;;;;;;47.80;22.65;;;4.80;87.10;;;;;;5046592;28;20181;-85
2022/01/12 01:57:49;;;;;;;46.40;20.52;;;4.70;87.20;;;;;;5038358;28;20274;-85
2022/01/12 02:00:22;;;;;;;45.20;19.93;;;4.50;87.30;;;;;;5038023;28;20177;-86
2022/01/12 02:02:50;;;;;;;55.42;20.70;;;4.30;87.70;;;;;;5036818;28;20413;-86
2022/01/12 02:05:16;;;;;;;63.90;22.70;;;4.20;88.00;;;;;;5036001;28;20811;-86
2022/01/12 02:07:45;;;;;;;54.90;23.87;;;4.40;88.50;;;;;;5035386;28;20229;-86
2022/01/12 02:10:11;;;;;;;48.03;21.17;;;4.50;88.60;;;;;;5036319;28;20166;-85
2022/01/12 02:12:37;;;;;;;48.65;22.58;;;4.60;88.60;;;;;;5035874;28;20181;-85
2022/01/12 02:15:12;;;;;;;57.30;21.93;;;4.50;89.30;;;;;;5037624;28;20170;-86
2022/01/12 02:17:42;;;;;;;44.83;21.55;;;4.60;88.60;;;;;;5037602;28;20517;-86
2022/01/12 02:20:27;;;;;;;45.85;21.35;;;4.60;88.60;;;;;;5050356;28;20182;-85
2022/01/12 02:36:56;;;;;;;45.20;20.98;;;4.90;88.00;;;;;;5041039;28;20204;-86
2022/01/12 02:42:08;;;;;;;54.42;22.67;;;4.80;87.10;;;;;;5050192;28;20243;-87
2022/01/12 02:55:32;;;;;;;58.10;21.25;;;4.40;86.70;;;;;;5064111;28;20188;-87
2022/01/12 02:57:58;;;;;;;52.45;21.83;;;4.40;86.50;;;;;;5050660;28;20314;-86
2022/01/12 03:00:31;;;;;;;50.73;20.60;;;4.30;86.40;;;;;;5037475;28;20248;-86
2022/01/12 03:03:02;;;;;;;53.35;21.30;;;4.20;86.40;;;;;;5041709;28;20174;-86
2022/01/12 03:05:44;;;;;;;48.20;21.98;;;4.30;86.50;;;;;;5061247;28;20212;-86
2022/01/12 03:08:13;;;;;;;50.25;21.75;;;4.40;86.40;;;;;;5067132;28;20193;-86
2022/01/12 03:10:41;;;;;;;48.20;19.85;;;4.30;86.40;;;;;;5069304;28;20181;-86
2022/01/12 03:13:07;;;;;;;54.70;21.30;;;4.40;87.20;;;;;;5064502;28;20236;-87
2022/01/12 03:15:39;;;;;;;59.57;22.67;;;4.60;86.50;;;;;;5060519;28;20196;-87
2022/01/12 03:18:05;;;;;;;59.15;21.40;;;4.40;86.30;;;;;;5056936;28;20404;-86
2022/01/12 03:20:31;;;;;;;49.67;21.52;;;4.50;86.70;;;;;;5057781;28;20559;-86
2022/01/12 03:22:57;;;;;;;57.47;23.17;;;4.60;86.90;;;;;;5053903;28;20190;-86
2022/01/12 03:25:23;;;;;;;52.70;21.40;;;4.60;87.10;;;;;;5050310;28;20464;-87
2022/01/12 03:27:49;;;;;;;51.27;20.30;;;4.40;87.10;;;;;;5038631;28;20225;-85
2022/01/12 03:30:15;;;;;;;62.83;23.10;;;4.60;87.30;;;;;;5038785;28;20412;-86
2022/01/12 03:32:46;;;;;;;62.92;21.17;;;4.70;87.40;;;;;;5054357;28;20245;-86
2022/01/12 03:35:22;;;;;;;43.53;22.02;;;4.80;87.50;;;;;;5059109;28;20149;-86
2022/01/12 03:38:19;;;;;;;52.05;23.08;;;4.60;87.30;;;;;;5057912;28;20275;-85
2022/01/12 03:40:42;;;;;;;43.75;21.08;;;4.90;87.50;;;;;;5038609;28;20181;-86
2022/01/12 03:43:07;;;;;;;52.80;20.55;;;4.90;87.40;;;;;;5037167;28;20186;-86
2022/01/12 03:45:33;;;;;;;64.03;22.70;;;4.60;87.10;;;;;;5037425;28;20224;-86
2022/01/12 03:47:59;;;;;;;50.93;19.60;;;4.60;87.20;;;;;;5057815;28;20248;-86
2022/01/12 03:50:24;;;;;;;57.07;21.70;;;4.70;87.40;;;;;;5056720;28;20173;-86
2022/01/12 03:52:50;;;;;;;58.57;23.20;;;4.60;87.20;;;;;;5056830;28;20169;-86
2022/01/12 03:55:16;;;;;;;63.03;22.87;;;4.30;87.20;;;;;;5047242;28;20488;-86
2022/01/12 03:57:41;;;;;;;57.60;22.33;;;4.30;87.30;;;;;;5036960;28;20209;-86
2022/01/12 04:00:08;;;;;;;57.77;23.43;;;4.40;87.30;;;;;;5038175;28;20201;-86
2022/01/12 04:02:34;;;;;;;49.60;20.75;;;4.30;87.40;;;;;;5037369;28;20184;-86
2022/01/12 04:05:24;;;;;;;52.75;21.40;;;4.30;87.50;;;;;;5048476;28;20820;-86
2022/01/12 04:10:37;;;;;;;48.97;21.10;;;4.20;87.50;;;;;;5055328;28;20177;-85
2022/01/12 04:13:02;;;;;;;44.92;20.70;;;4.20;87.60;;;;;;5053673;28;20177;-86
2022/01/12 04:15:28;;;;;;;64.17;22.47;;;4.50;87.80;;;;;;5053752;28;20185;-84
2022/01/12 04:17:54;;;;;;;52.73;19.47;;;4.70;87.60;;;;;;5054104;28;20435;-86
2022/01/12 04:20:20;;;;;;;54.23;24.03;;;4.80;87.40;;;;;;5051356;28;20178;-86
2022/01/12 04:25:30;;;;;;;40.88;19.70;;;4.70;87.20;;;;;;5035430;28;20172;-86
2022/01/12 04:27:55;;;;;;;51.30;19.07;;;4.70;87.40;;;;;;5035065;28;20296;-86
2022/01/12 04:30:21;;;;;;;51.63;20.57;;;4.50;87.60;;;;;;5033880;28;20948;-86
2022/01/12 04:32:48;;;;;;;67.07;21.67;;;4.30;87.70;;;;;;5035456;28;20185;-86
2022/01/12 04:35:15;;;;;;;58.97;22.00;;;4.20;87.70;;;;;;5040004;28;20441;-86
2022/01/12 04:37:41;;;;;;;53.17;20.00;;;4.20;87.90;;;;;;5040139;28;20209;-86
2022/01/12 04:40:08;;;;;;;47.47;19.25;;;4.10;88.00;;;;;;5042288;28;20221;-86
2022/01/12 04:42:35;;;;;;;62.65;21.63;;;4.20;88.20;;;;;;5043174;28;20213;-86
2022/01/12 04:45:36;;;;;;;59.65;22.15;;;4.30;88.20;;;;;;5041623;28;20189;-86
2022/01/12 04:50:37;;;;;;;56.00;21.40;;;4.50;88.20;;;;;;5036381;28;20615;-86
2022/01/12 04:53:06;;;;;;;56.63;22.73;;;4.80;88.20;;;;;;5043899;28;20245;-86
2022/01/12 04:55:32;;;;;;;54.10;20.00;;;4.90;87.90;;;;;;5060812;28;20208;-85
2022/01/12 04:57:58;;;;;;;54.05;21.48;;;4.70;87.40;;;;;;5050254;28;20570;-86
2022/01/12 05:00:26;;;;;;;58.55;22.08;;;4.60;87.40;;;;;;5053794;28;20177;-85
2022/01/12 05:13:35;;;;;;;54.58;19.50;;;4.80;88.30;;;;;;5053950;28;20164;-85
2022/01/12 05:16:01;;;;;;;55.75;21.50;;;5.00;88.50;;;;;;5053425;28;20650;-86
2022/01/12 05:18:28;;;;;;;49.33;21.45;;;5.00;88.40;;;;;;5067790;28;20181;-85
2022/01/12 05:20:54;;;;;;;44.95;19.73;;;4.80;88.00;;;;;;5068693;28;20185;-86
2022/01/12 05:23:20;;;;;;;45.93;19.93;;;4.80;88.00;;;;;;5056589;28;20217;-86
2022/01/12 05:25:48;;;;;;;47.87;20.00;;;4.60;88.00;;;;;;5053533;28;20205;-86
2022/01/12 05:28:15;;;;;;;54.17;21.38;;;4.60;88.10;;;;;;5052756;28;21002;-86
2022/01/12 05:30:41;;;;;;;53.72;21.67;;;4.80;88.10;;;;;;5054322;28;20626;-86
2022/01/12 05:33:07;;;;;;;54.40;21.95;;;4.60;88.00;;;;;;5055078;28;20181;-85
2022/01/12 05:35:34;;;;;;;49.10;21.93;;;4.50;88.00;;;;;;5055938;28;20204;-86
2022/01/12 05:38:02;;;;;;;46.10;19.60;;;4.50;88.10;;;;;;5053995;28;20428;-86
2022/01/12 05:40:28;;;;;;;56.30;22.35;;;4.60;88.00;;;;;;5053718;28;20235;-85
2022/01/12 05:42:55;;;;;;;46.22;21.60;;;4.50;88.00;;;;;;5055590;28;20181;-86
2022/01/12 05:45:22;;;;;;;53.55;21.75;;;4.80;88.00;;;;;;5056468;28;20189;-86
2022/01/12 05:50:16;;;;;;;55.20;22.38;;;5.00;87.80;;;;;;5035284;28;20182;-86
2022/01/12 05:52:42;;;;;;;55.97;23.33;;;4.80;87.70;;;;;;5037829;28;20170;-86
2022/01/12 05:55:10;;;;;;;54.53;22.42;;;4.80;87.80;;;;;;5056766;28;20181;-86
2022/01/12 05:57:36;;;;;;;51.22;19.85;;;4.90;87.80;;;;;;5057831;28;20274;-86
2022/01/12 06:00:08;;;;;;;49.70;22.08;;;5.00;87.70;;;;;;5057722;28;20208;-87
2022/01/12 06:02:34;;;;;;;57.90;21.95;;;4.80;87.60;;;;;;5064178;28;20241;-86
2022/01/12 06:05:01;;;;;;;51.50;20.00;;;4.80;87.50;;;;;;5052124;28;20166;-85
2022/01/12 06:07:28;;;;;;;55.30;23.05;;;4.70;87.50;;;;;;5049732;28;20194;-85
2022/01/12 06:09:54;;;;;;;53.65;23.02;;;4.60;87.40;;;;;;5048061;28;20241;-85
2022/01/12 06:12:19;;;;;;;70.30;22.33;;;4.60;87.40;;;;;;5047692;28;20182;-85
2022/01/12 06:14:45;;;;;;;46.80;21.73;;;4.60;87.50;;;;;;5046854;28;20644;-86
2022/01/12 06:17:11;;;;;;;56.97;23.65;;;4.60;87.50;;;;;;5042185;28;20444;-85
2022/01/12 06:19:38;;;;;;;61.63;22.50;;;4.60;87.50;;;;;;5062566;28;20181;-85
2022/01/12 06:22:05;;;;;;;63.28;23.63;;;4.50;87.50;;;;;;5057023;28;20188;-86
2022/01/12 06:24:32;;;;;;;51.03;20.80;;;4.40;87.50;;;;;;5057226;28;20264;-86
2022/01/12 06:26:59;;;;;;;59.53;22.95;;;4.40;87.70;;;;;;5057288;28;20801;-85
2022/01/12 06:29:40;;;;;;;63.53;23.45;;;4.50;87.80;;;;;;5056910;28;20277;-85
2022/01/12 06:32:07;;;;;;;63.92;22.02;;;4.50;87.90;;;;;;5055311;28;20211;-85
2022/01/12 06:34:33;;;;;;;68.32;22.45;;;4.40;87.80;;;;;;5056065;28;20182;-86
2022/01/12 06:36:59;;;;;;;71.50;23.90;;;4.40;88.60;;;;;;5055881;28;20204;-85
2022/01/12 06:39:26;;;;;;;66.63;22.20;;;4.40;88.00;;;;;;5062142;28;20261;-86
2022/01/12 06:41:54;;;;;;;56.28;23.17;;;4.50;88.20;;;;;;5063179;28;20555;-86
2022/01/12 06:44:21;;;;;;;63.70;23.63;;;4.50;88.30;;;;;;5058906;28;20224;-85
2022/01/12 06:46:48;;;;;;;61.22;22.75;;;4.50;88.30;;;;;;5065367;28;20209;-86
2022/01/12 06:49:16;;;;;;;63.40;23.52;;;4.60;88.40;;;;;;5079332;28;20200;-86
2022/01/12 06:51:42;;;;;;;57.47;21.67;;;4.70;88.50;;;;;;5078006;28;20169;-87
2022/01/12 06:54:08;;;;;;;52.47;24.00;;;4.60;88.30;;;;;;5085827;28;20260;-86
2022/01/12 06:56:34;;;;;;;55.25;22.42;;;4.70;88.40;;;;;;5060183;28;20239;-86
2022/01/12 06:59:00;;;;;;;52.83;20.63;;;4.60;88.50;;;;;;5057920;28;20181;-86
2022/01/12 07:01:29;;;;;;;59.90;22.02;;;4.60;88.50;;;;;;5072699;28;20420;-87
2022/01/12 07:03:55;;;;;;;43.95;19.23;;;4.60;88.60;;;;;;5055867;28;20181;-86
2022/01/12 07:06:22;;;;;;;70.57;21.95;;;4.80;88.50;;;;;;5056326;28;20735;-86
2022/01/12 07:08:47;;;;;;;57.88;22.35;;;4.80;88.40;;;;;;5056364;28;20299;-86
2022/01/12 07:11:13;;;;;;;49.93;20.27;;;4.80;88.40;;;;;;5053523;28;20260;-86
2022/01/12 07:13:39;;;;;;;55.30;21.17;;;5.00;88.50;;;;;;5057642;28;20193;-87
2022/01/12 07:16:05;;;;;;;55.63;22.63;;;4.90;88.50;;;;;;5046843;28;20425;-86
2022/01/12 07:18:31;;;;;;;64.13;25.47;;;4.90;88.50;;;;;;5034853;28;20968;-86
2022/01/12 07:20:57;;;;;;;68.75;23.60;;;4.90;88.40;;;;;;5035520;28;20459;-86
2022/01/12 07:23:23;;;;;;;65.87;23.60;;;4.90;88.40;;;;;;5035504;28;20178;-87
2022/01/12 07:25:50;;;;;;;65.40;24.35;;;5.30;88.40;;;;;;5035045;28;20194;-86
2022/01/12 07:28:16;;;;;;;66.82;21.63;;;5.40;88.10;;;;;;5035839;28;20210;-86
2022/01/12 07:30:42;;;;;;;64.93;23.55;;;5.20;87.60;;;;;;5035731;28;20296;-87
2022/01/12 07:33:07;;;;;;;60.87;23.83;;;5.10;87.80;;;;;;5035142;28;20224;-87
2022/01/12 07:35:33;;;;;;;51.70;20.33;;;5.20;88.10;;;;;;5036118;28;20685;-87
2022/01/12 07:37:59;;;;;;;66.80;23.30;;;5.20;88.20;;;;;;5036687;28;20557;-86
2022/01/12 07:40:25;;;;;;;72.67;24.03;;;5.30;88.30;;;;;;5053705;28;20477;-87
2022/01/12 07:42:51;;;;;;;72.20;22.37;;;5.30;88.20;;;;;;5058447;28;20177;-89
2022/01/12 07:45:17;;;;;;;60.33;23.83;;;5.10;88.20;;;;;;5058576;28;20420;-89
2022/01/12 07:47:44;;;;;;;76.65;24.52;;;5.20;88.30;;;;;;5055388;28;20460;-89
2022/01/12 07:50:10;;;;;;;64.55;24.23;;;5.20;88.40;;;;;;5054511;28;20177;-88
2022/01/12 07:52:36;;;;;;;57.13;23.20;;;5.30;88.60;;;;;;5054446;28;20177;-88
2022/01/12 07:55:03;;;;;;;71.33;25.60;;;5.10;88.40;;;;;;5041935;28;20188;-88
2022/01/12 07:57:29;;;;;;;61.75;22.65;;;5.10;88.30;;;;;;5052369;28;20424;-88
2022/01/12 07:59:55;;;;;;;67.70;23.88;;;5.10;88.30;;;;;;5036087;28;20232;-88
2022/01/12 08:02:21;;;;;;;68.75;23.77;;;5.10;88.30;;;;;;5034462;28;20657;-89
2022/01/12 08:04:46;;;;;;;88.90;28.97;;;5.00;88.10;;;;;;5033923;28;20672;-90
2022/01/12 08:07:12;;;;;;;70.87;24.80;;;4.90;88.10;;;;;;5034070;28;20193;-90
2022/01/12 08:09:42;;;;;;;58.50;25.33;;;4.80;88.20;;;;;;5034218;28;20210;-89
2022/01/12 08:12:09;;;;;;;67.43;24.27;;;4.80;88.30;;;;;;5034776;28;20439;-89
2022/01/12 08:14:35;;;;;;;73.63;25.60;;;4.80;88.40;;;;;;5034393;28;20178;-89
2022/01/12 08:17:01;;;;;;;62.67;26.15;;;4.80;88.50;;;;;;5034553;28;20210;-89
2022/01/12 08:19:28;;;;;;;84.20;27.35;;;4.90;88.60;;;;;;5034379;28;20328;-89
2022/01/12 08:21:55;;;;;;;59.60;23.17;;;4.90;88.60;;;;;;5036717;28;20559;-90
2022/01/12 08:24:22;;;;;;;62.13;24.85;;;4.90;88.60;;;;;;5036127;28;20182;-89
2022/01/12 08:26:48;;;;;;;65.40;24.10;;;5.20;88.70;;;;;;5035040;28;20690;-89
2022/01/12 08:29:15;;;;;;;71.50;25.80;;;5.40;88.50;;;;;;5044645;28;20284;-89
2022/01/12 08:31:43;;;;;;;68.55;26.98;;;5.20;88.30;;;;;;5056846;28;20267;-89
2022/01/12 08:34:10;;;;;;;68.35;25.15;;;5.10;88.40;;;;;;5059996;28;20184;-89
2022/01/12 08:36:37;;;;;;;71.95;24.80;;;5.30;88.50;;;;;;5065127;28;20197;-90
2022/01/12 08:39:06;;;;;;;70.57;25.50;;;5.10;88.40;;;;;;5060282;28;20185;-89
2022/01/12 08:41:32;;;;;;;69.93;25.15;;;5.10;88.50;;;;;;5055576;28;20185;-89
2022/01/12 08:43:58;;;;;;;71.90;26.23;;;5.10;88.70;;;;;;5056894;28;20181;-90
2022/01/12 08:46:24;;;;;;;67.87;24.23;;;5.20;88.60;;;;;;5060137;28;20484;-90
2022/01/12 08:48:49;;;;;;;72.80;28.00;;;5.20;88.50;;;;;;5058346;28;20554;-89
2022/01/12 08:51:15;;;;;;;69.13;25.27;;;5.30;88.50;;;;;;5068590;28;20177;-90
2022/01/12 08:53:41;;;;;;;78.50;25.60;;;5.30;88.40;;;;;;5068904;28;20415;-90
2022/01/12 08:56:07;;;;;;;60.70;25.33;;;5.40;88.30;;;;;;5041682;28;20670;-89
2022/01/12 08:58:33;;;;;;;76.03;26.92;;;5.40;88.30;;;;;;5041175;28;20319;-89
2022/01/12 09:01:03;;;;;;;67.53;25.15;;;5.50;88.10;;;;;;5054852;28;20655;-89
2022/01/12 09:03:30;;;;;;;84.55;24.63;;;5.40;87.90;;;;;;5059684;28;20173;-90
2022/01/12 09:05:56;;;;;;;75.80;25.27;;;5.50;88.00;;;;;;5070030;28;20201;-89
2022/01/12 09:08:22;;;;;;;80.53;27.80;;;5.60;87.80;;;;;;5070731;28;20208;-89
2022/01/12 09:10:48;;;;;;;85.80;26.80;;;5.40;87.60;;;;;;5064523;28;20272;-90
2022/01/12 09:13:14;;;;;;;88.87;25.73;;;5.40;87.70;;;;;;5059986;28;20431;-89
2022/01/12 09:15:39;;;;;;;85.30;26.60;;;5.40;87.60;;;;;;5055335;28;20226;-89
2022/01/12 09:18:05;;;;;;;92.63;28.93;;;5.50;87.80;;;;;;5034295;28;20277;-89
2022/01/12 09:20:32;;;;;;;83.17;26.63;;;5.40;87.70;;;;;;5033427;28;20419;-89
2022/01/12 09:22:58;;;;;;;81.45;29.98;;;5.40;87.70;;;;;;5034292;28;21025;-89
2022/01/12 09:25:25;;;;;;;72.55;24.98;;;5.50;87.80;;;;;;5033940;28;20181;-89
2022/01/12 09:27:51;;;;;;;72.90;26.83;;;5.60;87.70;;;;;;5037472;28;20715;-89
2022/01/12 09:30:18;;;;;;;82.27;27.43;;;5.70;87.80;;;;;;5037836;28;20272;-89
2022/01/12 09:32:45;;;;;;;78.82;26.95;;;5.70;87.70;;;;;;5038560;28;20420;-89
2022/01/12 09:35:12;;;;;;;77.25;26.70;;;5.80;87.60;;;;;;5038882;28;20254;-89
2022/01/12 09:37:38;;;;;;;87.45;28.45;;;5.90;87.60;;;;;;5038459;28;20198;-89
2022/01/12 09:40:06;;;;;;;82.43;27.40;;;6.00;87.40;;;;;;5039080;28;20204;-89
2022/01/12 09:42:32;;;;;;;93.03;29.98;;;6.10;87.30;;;;;;5041935;28;20428;-89
2022/01/12 09:45:00;;;;;;;83.07;27.88;;;6.00;87.00;;;;;;5043226;28;20228;-89
2022/01/12 09:47:26;;;;;;;85.53;30.17;;;6.00;86.90;;;;;;5042027;28;20194;-88
2022/01/12 09:49:52;;;;;;;71.50;25.30;;;6.10;87.00;;;;;;5038973;28;20171;-90
2022/01/12 09:52:17;;;;;;;83.47;27.60;;;6.10;86.90;;;;;;5039293;28;20484;-89
2022/01/12 09:54:43;;;;;;;94.87;29.57;;;6.10;86.80;;;;;;5040272;28;20183;-89
2022/01/12 09:57:09;;;;;;;82.47;30.50;;;6.30;86.80;;;;;;5037978;28;20678;-89
2022/01/12 09:59:36;;;;;;;83.90;28.08;;;6.30;86.70;;;;;;5037320;28;20186;-89
2022/01/12 10:02:03;;;;;;;79.20;29.52;;;6.30;86.50;;;;;;5037086;28;20183;-89
2022/01/12 10:04:30;;;;;;;93.38;31.08;;;6.30;86.50;;;;;;5036802;28;20547;-89
2022/01/12 10:07:03;;;;;;;86.53;26.60;;;6.50;86.40;;;;;;5037653;28;20299;-89
2022/01/12 10:09:39;;;;;;;75.18;25.52;;;6.50;86.30;;;;;;5038936;28;20216;-89
2022/01/12 10:12:19;;;;;;;83.78;25.13;;;6.50;86.30;;;;;;5037134;28;20185;-89
2022/01/12 10:14:46;;;;;;;64.40;21.42;;;6.60;86.20;;;;;;5039207;28;20708;-89
2022/01/12 10:17:13;;;;;;;92.03;26.63;;;6.40;86.20;;;;;;5041016;28;20236;-88
2022/01/12 10:19:40;;;;;;;58.42;20.88;;;6.50;86.60;;;;;;5039685;28;20209;-88
2022/01/12 10:22:08;;;;;;;71.80;23.75;;;6.60;87.30;;;;;;5037653;28;20184;-89
2022/01/12 10:24:45;;;;;;;63.67;23.77;;;6.50;86.70;;;;;;5037372;28;20273;-89
2022/01/12 10:27:17;;;;;;;65.00;21.60;;;6.60;86.70;;;;;;5039705;28;20555;-88
2022/01/12 10:29:44;;;;;;;64.07;21.15;;;6.40;86.80;;;;;;5038992;28;20210;-89
2022/01/12 10:32:10;;;;;;;66.38;23.70;;;6.40;87.10;;;;;;5049418;28;20177;-89
2022/01/12 10:34:39;;;;;;;78.18;23.33;;;6.50;87.10;;;;;;5070255;28;20185;-89
2022/01/12 10:37:10;;;;;;;67.95;22.63;;;6.30;87.30;;;;;;5062980;28;20330;-89
2022/01/12 10:39:46;;;;;;;91.32;27.75;;;6.30;87.70;;;;;;5053269;28;20328;-89
2022/01/12 10:42:14;;;;;;;81.00;24.30;;;6.10;87.70;;;;;;5045768;28;20217;-90
2022/01/12 10:44:43;;;;;;;78.38;24.35;;;6.10;87.90;;;;;;5050040;28;20216;-89
2022/01/12 10:47:11;;;;;;;70.65;27.77;;;6.10;89.10;;;;;;5048631;28;20252;-88
2022/01/12 10:49:42;;;;;;;71.05;22.95;;;6.30;88.50;;;;;;5037438;28;20747;-88
2022/01/12 10:52:12;;;;;;;77.65;27.75;;;6.40;88.40;;;;;;5036721;28;20169;-90
2022/01/12 10:54:47;;;;;;;80.68;26.80;;;6.70;88.40;;;;;;5048438;28;20658;-88
2022/01/12 10:57:16;;;;;;;75.18;28.02;;;6.40;87.90;;;;;;5038439;28;20211;-89
2022/01/12 10:59:42;;;;;;;69.45;23.88;;;6.40;88.10;;;;;;5052837;28;20177;-90
2022/01/12 11:02:08;;;;;;;61.87;26.40;;;6.60;88.10;;;;;;5050329;28;20189;-89
2022/01/12 11:04:35;;;;;;;67.13;24.40;;;6.50;87.80;;;;;;5037590;28;20186;-89
2022/01/12 11:07:01;;;;;;;68.90;24.23;;;6.30;88.00;;;;;;5036445;28;20201;-89
2022/01/12 11:09:28;;;;;;;65.55;25.33;;;6.50;88.20;;;;;;5049874;28;20212;-91
2022/01/12 11:11:54;;;;;;;68.10;28.52;;;6.70;88.00;;;;;;5059136;28;20193;-89
2022/01/12 11:14:20;;;;;;;74.10;27.52;;;6.80;87.80;;;;;;5060153;28;20173;-89
2022/01/12 11:16:46;;;;;;;57.10;24.00;;;6.60;87.60;;;;;;5059115;28;20209;-88
2022/01/12 11:19:12;;;;;;;56.53;22.57;;;6.40;87.50;;;;;;5058363;28;20193;-89
2022/01/12 11:21:49;;;;;;;74.65;25.40;;;6.30;87.50;;;;;;5055955;28;20436;-89
2022/01/12 11:24:18;;;;;;;58.50;21.45;;;6.50;87.50;;;;;;5055452;28;20215;-89
2022/01/12 11:26:50;;;;;;;63.28;21.75;;;6.40;87.20;;;;;;5055445;28;20246;-89
2022/01/12 11:29:28;;;;;;;67.70;23.63;;;6.20;87.10;;;;;;5055235;28;20203;-89
2022/01/12 11:32:07;;;;;;;61.00;22.83;;;6.10;87.00;;;;;;5055742;28;20550;-88
2022/01/12 11:34:33;;;;;;;71.68;23.17;;;6.00;86.90;;;;;;5055566;28;20165;-89
2022/01/12 11:36:59;;;;;;;65.53;22.80;;;6.30;87.10;;;;;;5055431;28;20220;-89
2022/01/12 11:39:31;;;;;;;62.93;23.93;;;6.70;87.00;;;;;;5038663;28;20435;-88
2022/01/12 11:41:58;;;;;;;60.25;22.20;;;7.00;86.50;;;;;;5055358;28;20173;-89
2022/01/12 11:44:26;;;;;;;67.65;24.55;;;6.80;85.30;;;;;;5053823;28;20192;-89
2022/01/12 11:46:53;;;;;;;56.53;21.60;;;6.90;84.90;;;;;;5056581;28;20185;-88
2022/01/12 11:49:47;;;;;;;64.18;24.10;;;7.00;84.70;;;;;;5046641;28;20197;-89
2022/01/12 11:52:14;;;;;;;52.80;20.10;;;7.10;84.30;;;;;;5054688;28;20165;-89
2022/01/12 11:54:44;;;;;;;52.53;20.65;;;7.10;83.70;;;;;;5049477;28;20174;-89
2022/01/12 11:57:11;;;;;;;56.40;20.00;;;6.80;83.20;;;;;;5036321;28;20190;-89
2022/01/12 11:59:55;;;;;;;45.63;19.40;;;7.00;83.60;;;;;;5036226;28;20189;-89
2022/01/12 12:02:39;;;;;;;51.15;19.67;;;7.00;83.70;;;;;;5037375;28;20184;-89
2022/01/12 12:05:17;;;;;;;48.25;19.60;;;6.60;83.50;;;;;;5039015;28;20185;-90
2022/01/12 12:07:45;;;;;;;53.08;20.65;;;6.50;83.90;;;;;;5041474;28;20215;-89
2022/01/12 12:10:14;;;;;;;59.80;20.08;;;6.50;84.10;;;;;;5044267;28;20245;-90
2022/01/12 12:12:40;;;;;;;50.50;21.17;;;6.90;84.20;;;;;;5043790;28;20181;-89
2022/01/12 12:15:09;;;;;;;53.83;22.30;;;6.90;83.70;;;;;;5048800;28;20173;-90
2022/01/12 12:17:37;;;;;;;52.80;22.23;;;6.80;83.50;;;;;;5048621;28;20448;-90
2022/01/12 12:20:07;;;;;;;52.38;21.63;;;7.00;83.70;;;;;;5035262;28;20181;-91
2022/01/12 12:22:37;;;;;;;67.38;21.75;;;7.20;83.60;;;;;;5034961;28;20654;-89
2022/01/12 12:25:07;;;;;;;54.85;19.67;;;7.30;83.40;;;;;;5054686;28;20176;-89
2022/01/12 12:27:34;;;;;;;47.63;21.45;;;7.50;83.40;;;;;;5040678;28;20209;-88
2022/01/12 12:30:03;;;;;;;49.40;21.20;;;7.80;82.70;;;;;;5050538;28;20633;-88
2022/01/12 12:32:35;;;;;;;58.70;20.98;;;7.70;81.70;;;;;;5053555;28;20901;-87
2022/01/12 12:35:06;;;;;;;48.42;20.63;;;7.50;81.30;;;;;;5056277;28;20185;-87
2022/01/12 12:37:51;;;;;;;48.05;20.27;;;7.30;81.40;;;;;;5060943;28;20189;-87
2022/01/12 12:40:22;;;;;;;41.17;19.08;;;7.20;81.50;;;;;;5071254;28;20176;-88
2022/01/12 12:43:02;;;;;;;51.80;20.20;;;6.90;81.40;;;;;;5066850;28;20165;-87
2022/01/12 12:45:59;;;;;;;53.78;22.35;;;6.90;81.70;;;;;;5062416;28;20424;-86
2022/01/12 12:48:31;;;;;;;51.53;21.40;;;6.80;82.00;;;;;;5040807;28;20316;-87
2022/01/12 12:50:58;;;;;;;53.85;21.92;;;6.70;82.30;;;;;;5043594;28;20174;-87
2022/01/12 12:53:32;;;;;;;50.25;22.35;;;7.00;82.40;;;;;;5064662;28;20200;-87
2022/01/12 12:55:58;;;;;;;56.08;24.30;;;7.00;82.30;;;;;;5036929;28;20234;-87
2022/01/12 12:58:28;;;;;;;44.20;21.65;;;7.00;82.30;;;;;;5038247;28;20208;-87
2022/01/12 13:01:07;;;;;;;44.05;21.50;;;7.00;82.50;;;;;;5034972;28;20232;-87
2022/01/12 13:03:33;;;;;;;60.38;22.27;;;7.30;82.40;;;;;;5042974;28;20204;-87
2022/01/12 13:05:59;;;;;;;53.10;20.05;;;7.50;83.20;;;;;;5054346;28;20197;-87
2022/01/12 13:08:25;;;;;;;56.67;20.90;;;7.80;82.20;;;;;;5058454;28;20347;-87
2022/01/12 13:10:51;;;;;;;42.42;20.13;;;7.90;81.90;;;;;;5049181;28;20683;-87
2022/01/12 13:13:16;;;;;;;46.17;19.70;;;7.90;81.40;;;;;;5056247;28;20181;-88
2022/01/12 13:15:43;;;;;;;50.83;20.57;;;7.50;80.80;;;;;;5048120;28;20200;-88
2022/01/12 13:18:14;;;;;;;54.72;22.75;;;7.60;81.10;;;;;;5040962;28;20416;-87
2022/01/12 13:23:41;;;;;;;51.28;20.50;;;7.20;81.20;;;;;;5050312;28;20184;-88
2022/01/12 13:26:09;;;;;;;49.33;20.50;;;7.40;81.80;;;;;;5071635;28;20193;-89
2022/01/12 13:28:41;;;;;;;44.72;18.75;;;7.30;81.70;;;;;;5058893;28;20201;-88
2022/01/12 13:31:13;;;;;;;45.45;18.52;;;7.20;81.50;;;;;;5059299;28;20169;-89
2022/01/12 13:33:41;;;;;;;46.45;20.65;;;7.30;81.80;;;;;;5060612;28;20269;-87
2022/01/12 13:36:18;;;;;;;46.45;19.58;;;7.20;81.30;;;;;;5061843;28;20299;-87
2022/01/12 13:38:55;;;;;;;48.15;21.55;;;7.00;81.20;;;;;;5044143;28;20610;-88
2022/01/12 13:41:25;;;;;;;50.95;18.98;;;6.90;81.60;;;;;;5041865;28;20181;-89
2022/01/12 13:44:07;;;;;;;45.75;18.15;;;7.10;82.20;;;;;;5041396;28;20186;-88
2022/01/12 13:46:39;;;;;;;41.67;20.25;;;7.30;82.30;;;;;;5053617;28;20260;-88
2022/01/12 13:51:38;;;;;;;56.22;21.98;;;7.50;81.70;;;;;;5057689;28;20192;-88
2022/01/12 13:54:10;;;;;;;43.83;18.27;;;7.40;81.10;;;;;;5056524;28;20241;-89
2022/01/12 13:56:49;;;;;;;60.40;20.60;;;7.40;80.90;;;;;;5057718;28;20293;-90
2022/01/12 13:59:51;;;;;;;48.28;19.10;;;7.30;80.40;;;;;;5056981;28;20165;-89
2022/01/12 14:02:23;;;;;;;47.58;19.40;;;7.40;80.30;;;;;;5056836;28;20169;-89
2022/01/12 14:05:05;;;;;;;42.83;19.25;;;7.50;80.20;;;;;;5056517;28;20202;-89
2022/01/12 14:07:35;;;;;;;60.38;21.08;;;7.40;80.00;;;;;;5055879;28;20268;-87